CWB2 weather

Bracebridge West Airfield
Ontario, Canada

Public forecast

Using degrees Celsius for public forecast. Weather courtesy of forecast.io.

METAR (pilot weather report)

Closest report is Muskoka Airport, 6.5 nm (12.1 km) SE. Retrieved 2019/07/21 08:00 UTC (28 minutes ago):

CYQA 210800Z AUTO 26006KT 240V310 9SM SCT055 OVC071 21/18 A2979 RMK SLP084 DENSITY ALT 1900FT

TAF (pilot weather forecast)

Forecast is more than 12 hours old.

Closest forecast is Muskoka Airport, 6.5 nm (12.1 km) SE. Retrieved 2019/07/20 20:00 UTC (12 hours ago):

TAF CYQA 201943Z 2020/2102 29012KT P6SM SKC FM210000 26007KT P6SM BKN040 PROB30 2100/2102 VRB15G30KT 1SM +TSRA BR BKN012 OVC040CB RMK FCST BASED ON AUTO OBS. NXT FCST WILL BE ISSUED AT 211145Z